sensor_id;sensor_type;location;lat;lon;timestamp;temperature;humidity
5792;DHT22;2922;53.482;10.006;2023-04-24T00:15:59;12.80;99.90
5792;DHT22;2922;53.482;10.006;2023-04-24T00:18:25;12.70;99.90
5792;DHT22;2922;53.482;10.006;2023-04-24T00:20:50;12.70;99.90
5792;DHT22;2922;53.482;10.006;2023-04-24T00:23:16;12.70;99.90
5792;DHT22;2922;53.482;10.006;2023-04-24T00:25:42;12.70;99.90
5792;DHT22;2922;53.482;10.006;2023-04-24T00:28:07;12.70;99.90
5792;DHT22;2922;53.482;10.006;2023-04-24T00:30:33;12.70;99.90
5792;DHT22;2922;53.482;10.006;2023-04-24T00:32:58;12.70;99.90
5792;DHT22;2922;53.482;10.006;2023-04-24T00:35:24;12.70;99.90
5792;DHT22;2922;53.482;10.006;2023-04-24T00:37:49;12.60;99.90
5792;DHT22;2922;53.482;10.006;2023-04-24T00:40:15;12.60;99.90
5792;DHT22;2922;53.482;10.006;2023-04-24T00:42:41;12.60;99.90
5792;DHT22;2922;53.482;10.006;2023-04-24T00:45:07;12.60;99.90
5792;DHT22;2922;53.482;10.006;2023-04-24T00:47:33;12.60;99.90
5792;DHT22;2922;53.482;10.006;2023-04-24T00:50:04;12.60;99.90
5792;DHT22;2922;53.482;10.006;2023-04-24T00:52:30;12.50;99.90
5792;DHT22;2922;53.482;10.006;2023-04-24T00:54:57;12.50;99.90
5792;DHT22;2922;53.482;10.006;2023-04-24T00:57:23;12.50;99.90
5792;DHT22;2922;53.482;10.006;2023-04-24T00:59:51;12.40;99.90
5792;DHT22;2922;53.482;10.006;2023-04-24T01:02:17;12.40;99.90
5792;DHT22;2922;53.482;10.006;2023-04-24T01:04:43;12.30;99.90
5792;DHT22;2922;53.482;10.006;2023-04-24T01:07:08;12.30;99.90
5792;DHT22;2922;53.482;10.006;2023-04-24T01:09:38;12.20;99.90
5792;DHT22;2922;53.482;10.006;2023-04-24T01:12:05;12.30;99.90
5792;DHT22;2922;53.482;10.006;2023-04-24T01:14:31;12.20;99.90
5792;DHT22;2922;53.482;10.006;2023-04-24T01:16:56;12.20;99.90
5792;DHT22;2922;53.482;10.006;2023-04-24T01:19:23;12.20;99.90
5792;DHT22;2922;53.482;10.006;2023-04-24T01:21:50;12.10;99.90
5792;DHT22;2922;53.482;10.006;2023-04-24T01:24:18;12.10;99.90
5792;DHT22;2922;53.482;10.006;2023-04-24T01:26:45;12.10;99.90
5792;DHT22;2922;53.482;10.006;2023-04-24T01:29:11;12.10;99.90
5792;DHT22;2922;53.482;10.006;2023-04-24T01:31:36;12.10;99.90
5792;DHT22;2922;53.482;10.006;2023-04-24T01:34:03;12.10;99.90
5792;DHT22;2922;53.482;10.006;2023-04-24T01:36:30;12.10;99.90
5792;DHT22;2922;53.482;10.006;2023-04-24T01:38:57;12.00;99.90
5792;DHT22;2922;53.482;10.006;2023-04-24T01:41:23;12.00;99.90
5792;DHT22;2922;53.482;10.006;2023-04-24T01:43:50;12.00;99.90
5792;DHT22;2922;53.482;10.006;2023-04-24T01:46:16;12.00;99.90
5792;DHT22;2922;53.482;10.006;2023-04-24T01:48:41;12.00;99.90
5792;DHT22;2922;53.482;10.006;2023-04-24T01:51:07;12.00;99.90
5792;DHT22;2922;53.482;10.006;2023-04-24T01:53:32;12.00;99.90
5792;DHT22;2922;53.482;10.006;2023-04-24T01:55:58;12.00;99.90
5792;DHT22;2922;53.482;10.006;2023-04-24T01:58:24;12.00;99.90
5792;DHT22;2922;53.482;10.006;2023-04-24T02:00:50;11.90;99.90
5792;DHT22;2922;53.482;10.006;2023-04-24T02:03:15;11.90;99.90
5792;DHT22;2922;53.482;10.006;2023-04-24T02:05:44;11.90;99.90
5792;DHT22;2922;53.482;10.006;2023-04-24T02:08:09;11.90;99.90
5792;DHT22;2922;53.482;10.006;2023-04-24T02:10:35;11.80;99.90
5792;DHT22;2922;53.482;10.006;2023-04-24T02:13:01;11.80;99.90
5792;DHT22;2922;53.482;10.006;2023-04-24T02:15:26;11.80;99.90
5792;DHT22;2922;53.482;10.006;2023-04-24T02:17:52;11.70;99.90
5792;DHT22;2922;53.482;10.006;2023-04-24T02:20:17;11.70;99.90
5792;DHT22;2922;53.482;10.006;2023-04-24T02:22:43;11.60;99.90
5792;DHT22;2922;53.482;10.006;2023-04-24T02:25:09;11.60;99.90
5792;DHT22;2922;53.482;10.006;2023-04-24T02:27:34;11.50;99.90
5792;DHT22;2922;53.482;10.006;2023-04-24T02:30:00;11.50;99.90
5792;DHT22;2922;53.482;10.006;2023-04-24T02:32:26;11.50;99.90
5792;DHT22;2922;53.482;10.006;2023-04-24T02:34:51;11.40;99.90
5792;DHT22;2922;53.482;10.006;2023-04-24T02:37:17;11.40;99.90
5792;DHT22;2922;53.482;10.006;2023-04-24T02:39:42;11.40;99.90
5792;DHT22;2922;53.482;10.006;2023-04-24T02:42:08;11.40;99.90
5792;DHT22;2922;53.482;10.006;2023-04-24T02:44:33;11.40;99.90
5792;DHT22;2922;53.482;10.006;2023-04-24T02:46:59;11.40;99.90
5792;DHT22;2922;53.482;10.006;2023-04-24T02:49:25;11.30;99.90
5792;DHT22;2922;53.482;10.006;2023-04-24T02:51:51;11.30;99.90
5792;DHT22;2922;53.482;10.006;2023-04-24T02:54:16;11.30;99.90
5792;DHT22;2922;53.482;10.006;2023-04-24T02:56:42;11.30;99.90
5792;DHT22;2922;53.482;10.006;2023-04-24T02:59:08;11.20;99.90
5792;DHT22;2922;53.482;10.006;2023-04-24T03:01:33;11.20;99.90
5792;DHT22;2922;53.482;10.006;2023-04-24T03:03:59;11.20;99.90
5792;DHT22;2922;53.482;10.006;2023-04-24T03:06:25;11.20;99.90
5792;DHT22;2922;53.482;10.006;2023-04-24T03:08:52;11.20;99.90
5792;DHT22;2922;53.482;10.006;2023-04-24T03:11:18;11.10;99.90
5792;DHT22;2922;53.482;10.006;2023-04-24T03:13:43;11.10;99.90
5792;DHT22;2922;53.482;10.006;2023-04-24T03:16:09;11.10;99.90
5792;DHT22;2922;53.482;10.006;2023-04-24T03:18:34;11.10;99.90
5792;DHT22;2922;53.482;10.006;2023-04-24T03:21:00;11.00;99.90
5792;DHT22;2922;53.482;10.006;2023-04-24T03:23:26;11.00;99.90
5792;DHT22;2922;53.482;10.006;2023-04-24T03:25:51;11.00;99.90
5792;DHT22;2922;53.482;10.006;2023-04-24T03:28:17;11.00;99.90
5792;DHT22;2922;53.482;10.006;2023-04-24T03:30:43;10.90;99.90
5792;DHT22;2922;53.482;10.006;2023-04-24T03:33:08;10.90;99.90
5792;DHT22;2922;53.482;10.006;2023-04-24T03:35:35;10.90;99.90
5792;DHT22;2922;53.482;10.006;2023-04-24T03:38:01;10.80;99.90
5792;DHT22;2922;53.482;10.006;2023-04-24T03:40:27;10.80;99.90
5792;DHT22;2922;53.482;10.006;2023-04-24T03:42:54;10.80;99.90
5792;DHT22;2922;53.482;10.006;2023-04-24T03:45:20;10.80;99.90
5792;DHT22;2922;53.482;10.006;2023-04-24T03:47:45;10.80;99.90
5792;DHT22;2922;53.482;10.006;2023-04-24T03:50:11;10.70;99.90
5792;DHT22;2922;53.482;10.006;2023-04-24T03:52:36;10.70;99.90
5792;DHT22;2922;53.482;10.006;2023-04-24T03:55:02;10.70;99.90
5792;DHT22;2922;53.482;10.006;2023-04-24T03:57:28;10.60;99.90
5792;DHT22;2922;53.482;10.006;2023-04-24T03:59:53;10.60;99.90
5792;DHT22;2922;53.482;10.006;2023-04-24T04:02:19;10.60;99.90
5792;DHT22;2922;53.482;10.006;2023-04-24T04:04:44;10.60;99.90
5792;DHT22;2922;53.482;10.006;2023-04-24T04:07:10;10.50;99.90
5792;DHT22;2922;53.482;10.006;2023-04-24T04:09:36;10.50;99.90
5792;DHT22;2922;53.482;10.006;2023-04-24T04:12:02;10.50;99.90
5792;DHT22;2922;53.482;10.006;2023-04-24T04:14:28;10.50;99.90
5792;DHT22;2922;53.482;10.006;2023-04-24T04:16:53;10.50;99.90
5792;DHT22;2922;53.482;10.006;2023-04-24T04:19:19;10.50;99.90
5792;DHT22;2922;53.482;10.006;2023-04-24T04:21:45;10.50;99.90
5792;DHT22;2922;53.482;10.006;2023-04-24T04:24:11;10.50;99.90
5792;DHT22;2922;53.482;10.006;2023-04-24T04:26:37;10.50;99.90
5792;DHT22;2922;53.482;10.006;2023-04-24T04:29:03;10.50;99.90
5792;DHT22;2922;53.482;10.006;2023-04-24T04:31:29;10.40;99.90
5792;DHT22;2922;53.482;10.006;2023-04-24T04:33:55;10.40;99.90
5792;DHT22;2922;53.482;10.006;2023-04-24T04:36:21;10.40;99.90
5792;DHT22;2922;53.482;10.006;2023-04-24T04:38:46;10.40;99.90
5792;DHT22;2922;53.482;10.006;2023-04-24T04:41:12;10.40;99.90
5792;DHT22;2922;53.482;10.006;2023-04-24T04:43:37;10.40;99.90
5792;DHT22;2922;53.482;10.006;2023-04-24T04:46:05;10.40;99.90
5792;DHT22;2922;53.482;10.006;2023-04-24T04:48:30;10.40;99.90
5792;DHT22;2922;53.482;10.006;2023-04-24T04:50:57;10.40;99.90
5792;DHT22;2922;53.482;10.006;2023-04-24T04:53:23;10.50;99.90
5792;DHT22;2922;53.482;10.006;2023-04-24T04:55:48;10.50;99.90
5792;DHT22;2922;53.482;10.006;2023-04-24T04:58:14;10.50;99.90
5792;DHT22;2922;53.482;10.006;2023-04-24T05:00:39;10.50;99.90
5792;DHT22;2922;53.482;10.006;2023-04-24T05:03:05;10.50;99.90
5792;DHT22;2922;53.482;10.006;2023-04-24T05:05:31;10.50;99.90
5792;DHT22;2922;53.482;10.006;2023-04-24T05:07:56;10.50;99.90
5792;DHT22;2922;53.482;10.006;2023-04-24T05:10:22;10.50;99.90
5792;DHT22;2922;53.482;10.006;2023-04-24T05:12:48;10.60;99.90
5792;DHT22;2922;53.482;10.006;2023-04-24T05:15:14;10.60;99.90
5792;DHT22;2922;53.482;10.006;2023-04-24T05:17:40;10.60;99.90
5792;DHT22;2922;53.482;10.006;2023-04-24T05:20:06;10.60;99.90
5792;DHT22;2922;53.482;10.006;2023-04-24T05:22:32;10.70;99.90
5792;DHT22;2922;53.482;10.006;2023-04-24T05:24:58;10.70;99.90
5792;DHT22;2922;53.482;10.006;2023-04-24T05:27:24;10.70;99.90
5792;DHT22;2922;53.482;10.006;2023-04-24T05:29:50;10.80;99.90
5792;DHT22;2922;53.482;10.006;2023-04-24T05:32:16;10.80;99.90
5792;DHT22;2922;53.482;10.006;2023-04-24T05:34:41;10.90;99.90
5792;DHT22;2922;53.482;10.006;2023-04-24T05:37:07;10.90;99.90
5792;DHT22;2922;53.482;10.006;2023-04-24T05:39:35;11.00;99.90
5792;DHT22;2922;53.482;10.006;2023-04-24T05:42:01;11.00;99.90
5792;DHT22;2922;53.482;10.006;2023-04-24T05:44:27;11.10;99.90
5792;DHT22;2922;53.482;10.006;2023-04-24T05:46:52;11.10;99.90
5792;DHT22;2922;53.482;10.006;2023-04-24T05:49:18;11.20;99.90
5792;DHT22;2922;53.482;10.006;2023-04-24T05:51:43;11.20;99.90
5792;DHT22;2922;53.482;10.006;2023-04-24T05:54:09;11.30;99.90
5792;DHT22;2922;53.482;10.006;2023-04-24T05:56:37;11.30;99.90
5792;DHT22;2922;53.482;10.006;2023-04-24T05:59:03;11.40;99.90
5792;DHT22;2922;53.482;10.006;2023-04-24T06:01:28;11.50;99.90
5792;DHT22;2922;53.482;10.006;2023-04-24T06:03:55;11.50;99.90
5792;DHT22;2922;53.482;10.006;2023-04-24T06:06:20;11.60;99.90
5792;DHT22;2922;53.482;10.006;2023-04-24T06:08:46;11.70;99.90
5792;DHT22;2922;53.482;10.006;2023-04-24T06:11:11;11.80;99.90
5792;DHT22;2922;53.482;10.006;2023-04-24T06:13:37;11.90;99.90
5792;DHT22;2922;53.482;10.006;2023-04-24T06:16:02;11.90;99.90
5792;DHT22;2922;53.482;10.006;2023-04-24T06:18:28;11.90;99.90
5792;DHT22;2922;53.482;10.006;2023-04-24T06:20:54;12.00;99.90
5792;DHT22;2922;53.482;10.006;2023-04-24T06:23:20;12.10;99.90
5792;DHT22;2922;53.482;10.006;2023-04-24T06:25:46;12.10;99.90
5792;DHT22;2922;53.482;10.006;2023-04-24T06:28:12;12.20;99.90
5792;DHT22;2922;53.482;10.006;2023-04-24T06:30:38;12.30;99.90
5792;DHT22;2922;53.482;10.006;2023-04-24T06:33:03;12.40;99.90
5792;DHT22;2922;53.482;10.006;2023-04-24T06:35:29;12.50;99.90
5792;DHT22;2922;53.482;10.006;2023-04-24T06:37:54;12.60;99.90
5792;DHT22;2922;53.482;10.006;2023-04-24T06:40:21;12.60;99.90
5792;DHT22;2922;53.482;10.006;2023-04-24T06:42:47;12.70;99.90
5792;DHT22;2922;53.482;10.006;2023-04-24T06:45:13;12.80;99.90
5792;DHT22;2922;53.482;10.006;2023-04-24T06:47:38;12.90;99.90
5792;DHT22;2922;53.482;10.006;2023-04-24T06:50:04;13.00;99.90
5792;DHT22;2922;53.482;10.006;2023-04-24T06:52:30;13.10;99.90
5792;DHT22;2922;53.482;10.006;2023-04-24T06:55:04;13.10;99.90
5792;DHT22;2922;53.482;10.006;2023-04-24T06:57:31;13.20;99.90
5792;DHT22;2922;53.482;10.006;2023-04-24T06:59:57;13.30;99.90
5792;DHT22;2922;53.482;10.006;2023-04-24T07:02:22;13.40;99.90
5792;DHT22;2922;53.482;10.006;2023-04-24T07:04:48;13.50;99.90
5792;DHT22;2922;53.482;10.006;2023-04-24T07:07:14;13.50;99.90
5792;DHT22;2922;53.482;10.006;2023-04-24T07:09:40;13.60;99.90
5792;DHT22;2922;53.482;10.006;2023-04-24T07:12:09;13.50;99.90
5792;DHT22;2922;53.482;10.006;2023-04-24T07:14:38;13.50;99.90
5792;DHT22;2922;53.482;10.006;2023-04-24T07:17:04;13.40;99.90
5792;DHT22;2922;53.482;10.006;2023-04-24T07:19:32;13.40;99.90
5792;DHT22;2922;53.482;10.006;2023-04-24T07:21:58;13.50;99.90
5792;DHT22;2922;53.482;10.006;2023-04-24T07:24:25;13.80;99.90
5792;DHT22;2922;53.482;10.006;2023-04-24T07:26:51;14.00;99.90
5792;DHT22;2922;53.482;10.006;2023-04-24T07:29:18;14.30;99.90
5792;DHT22;2922;53.482;10.006;2023-04-24T07:31:44;14.10;99.90
5792;DHT22;2922;53.482;10.006;2023-04-24T07:34:09;14.20;99.90
5792;DHT22;2922;53.482;10.006;2023-04-24T07:36:35;14.30;99.90
5792;DHT22;2922;53.482;10.006;2023-04-24T07:39:04;14.40;99.90
5792;DHT22;2922;53.482;10.006;2023-04-24T07:41:29;14.50;99.90
5792;DHT22;2922;53.482;10.006;2023-04-24T07:43:55;14.30;99.90
5792;DHT22;2922;53.482;10.006;2023-04-24T07:46:20;14.10;99.90
5792;DHT22;2922;53.482;10.006;2023-04-24T07:48:46;13.90;99.90
5792;DHT22;2922;53.482;10.006;2023-04-24T07:51:14;14.00;99.90
5792;DHT22;2922;53.482;10.006;2023-04-24T07:53:39;14.20;99.90
5792;DHT22;2922;53.482;10.006;2023-04-24T07:56:05;14.10;99.90
5792;DHT22;2922;53.482;10.006;2023-04-24T07:58:31;14.00;99.90
5792;DHT22;2922;53.482;10.006;2023-04-24T08:00:56;13.90;99.90
5792;DHT22;2922;53.482;10.006;2023-04-24T08:03:22;13.80;99.90
5792;DHT22;2922;53.482;10.006;2023-04-24T08:05:47;13.80;99.90
5792;DHT22;2922;53.482;10.006;2023-04-24T08:08:13;13.70;99.90
5792;DHT22;2922;53.482;10.006;2023-04-24T08:10:39;13.70;99.90
5792;DHT22;2922;53.482;10.006;2023-04-24T08:13:05;13.70;99.90
5792;DHT22;2922;53.482;10.006;2023-04-24T08:15:30;13.70;99.90
5792;DHT22;2922;53.482;10.006;2023-04-24T08:17:57;13.80;99.90
5792;DHT22;2922;53.482;10.006;2023-04-24T08:20:22;13.80;99.90
5792;DHT22;2922;53.482;10.006;2023-04-24T08:22:48;13.80;99.90
5792;DHT22;2922;53.482;10.006;2023-04-24T08:25:14;13.80;99.90
5792;DHT22;2922;53.482;10.006;2023-04-24T08:27:40;13.70;99.90
5792;DHT22;2922;53.482;10.006;2023-04-24T08:30:06;13.80;99.90
5792;DHT22;2922;53.482;10.006;2023-04-24T08:32:32;13.80;99.90
5792;DHT22;2922;53.482;10.006;2023-04-24T08:34:58;13.80;99.90
5792;DHT22;2922;53.482;10.006;2023-04-24T08:37:26;13.80;99.90
5792;DHT22;2922;53.482;10.006;2023-04-24T08:39:52;13.80;99.90
5792;DHT22;2922;53.482;10.006;2023-04-24T08:42:18;13.70;99.90
5792;DHT22;2922;53.482;10.006;2023-04-24T08:44:44;13.80;99.90
5792;DHT22;2922;53.482;10.006;2023-04-24T08:47:11;13.90;99.90
5792;DHT22;2922;53.482;10.006;2023-04-24T08:49:38;13.90;99.90
5792;DHT22;2922;53.482;10.006;2023-04-24T08:52:05;14.00;99.90
5792;DHT22;2922;53.482;10.006;2023-04-24T08:54:32;14.20;99.90
5792;DHT22;2922;53.482;10.006;2023-04-24T08:57:00;14.20;99.90
5792;DHT22;2922;53.482;10.006;2023-04-24T08:59:31;14.30;99.90
5792;DHT22;2922;53.482;10.006;2023-04-24T09:01:57;14.50;99.90
5792;DHT22;2922;53.482;10.006;2023-04-24T09:04:24;14.50;99.90
5792;DHT22;2922;53.482;10.006;2023-04-24T09:06:58;14.30;99.90
5792;DHT22;2922;53.482;10.006;2023-04-24T09:09:30;14.20;99.90
5792;DHT22;2922;53.482;10.006;2023-04-24T09:11:56;14.00;99.90
5792;DHT22;2922;53.482;10.006;2023-04-24T09:14:23;13.90;99.90
5792;DHT22;2922;53.482;10.006;2023-04-24T09:16:49;13.80;99.90
5792;DHT22;2922;53.482;10.006;2023-04-24T09:19:15;13.80;99.90
5792;DHT22;2922;53.482;10.006;2023-04-24T09:21:40;13.80;99.90
5792;DHT22;2922;53.482;10.006;2023-04-24T09:24:17;13.80;99.90
5792;DHT22;2922;53.482;10.006;2023-04-24T09:26:43;13.80;99.90
5792;DHT22;2922;53.482;10.006;2023-04-24T09:29:17;13.80;99.90
5792;DHT22;2922;53.482;10.006;2023-04-24T09:31:44;13.90;99.90
5792;DHT22;2922;53.482;10.006;2023-04-24T09:34:11;13.80;99.90
5792;DHT22;2922;53.482;10.006;2023-04-24T09:36:38;13.90;99.90
5792;DHT22;2922;53.482;10.006;2023-04-24T09:39:09;13.80;99.90
5792;DHT22;2922;53.482;10.006;2023-04-24T09:44:22;13.90;99.90
5792;DHT22;2922;53.482;10.006;2023-04-24T09:46:55;14.00;99.90
5792;DHT22;2922;53.482;10.006;2023-04-24T09:49:31;14.00;99.90
5792;DHT22;2922;53.482;10.006;2023-04-24T09:54:30;14.20;99.90
5792;DHT22;2922;53.482;10.006;2023-04-24T09:56:56;14.30;99.90
5792;DHT22;2922;53.482;10.006;2023-04-24T09:59:22;14.50;99.90
5792;DHT22;2922;53.482;10.006;2023-04-24T10:01:48;14.50;99.90
5792;DHT22;2922;53.482;10.006;2023-04-24T10:04:25;14.40;99.90
5792;DHT22;2922;53.482;10.006;2023-04-24T10:06:53;14.40;99.90
5792;DHT22;2922;53.482;10.006;2023-04-24T10:09:20;14.50;99.90
5792;DHT22;2922;53.482;10.006;2023-04-24T10:11:48;14.30;99.90
5792;DHT22;2922;53.482;10.006;2023-04-24T10:14:22;14.30;99.90
5792;DHT22;2922;53.482;10.006;2023-04-24T10:16:49;14.40;99.90
5792;DHT22;2922;53.482;10.006;2023-04-24T10:19:16;14.40;99.90
5792;DHT22;2922;53.482;10.006;2023-04-24T10:21:43;14.30;99.90
5792;DHT22;2922;53.482;10.006;2023-04-24T10:24:16;14.10;99.90
5792;DHT22;2922;53.482;10.006;2023-04-24T10:26:43;14.00;99.90
5792;DHT22;2922;53.482;10.006;2023-04-24T10:29:11;13.90;99.90
5792;DHT22;2922;53.482;10.006;2023-04-24T10:31:38;13.80;99.90
5792;DHT22;2922;53.482;10.006;2023-04-24T10:34:09;13.60;99.90
5792;DHT22;2922;53.482;10.006;2023-04-24T10:36:37;13.60;99.90
5792;DHT22;2922;53.482;10.006;2023-04-24T10:39:07;13.60;99.90
5792;DHT22;2922;53.482;10.006;2023-04-24T10:41:37;13.50;99.90
5792;DHT22;2922;53.482;10.006;2023-04-24T10:44:15;13.40;99.90
5792;DHT22;2922;53.482;10.006;2023-04-24T10:46:46;13.40;99.90
5792;DHT22;2922;53.482;10.006;2023-04-24T10:49:13;13.60;99.90
5792;DHT22;2922;53.482;10.006;2023-04-24T10:51:50;13.80;99.90
5792;DHT22;2922;53.482;10.006;2023-04-24T10:54:48;13.90;99.90
5792;DHT22;2922;53.482;10.006;2023-04-24T10:59:48;14.30;99.90
5792;DHT22;2922;53.482;10.006;2023-04-24T11:02:14;14.40;99.90
5792;DHT22;2922;53.482;10.006;2023-04-24T11:04:41;14.40;99.90
5792;DHT22;2922;53.482;10.006;2023-04-24T11:07:09;14.60;99.90
5792;DHT22;2922;53.482;10.006;2023-04-24T11:09:35;14.90;99.90
5792;DHT22;2922;53.482;10.006;2023-04-24T11:12:09;15.20;99.90
5792;DHT22;2922;53.482;10.006;2023-04-24T11:14:59;15.20;99.90
5792;DHT22;2922;53.482;10.006;2023-04-24T11:17:29;15.00;99.90
5792;DHT22;2922;53.482;10.006;2023-04-24T11:20:01;14.80;99.90
5792;DHT22;2922;53.482;10.006;2023-04-24T11:22:28;14.70;99.90
5792;DHT22;2922;53.482;10.006;2023-04-24T11:24:55;14.60;99.90
5792;DHT22;2922;53.482;10.006;2023-04-24T11:27:22;14.70;99.90
5792;DHT22;2922;53.482;10.006;2023-04-24T11:34:57;14.70;99.90
5792;DHT22;2922;53.482;10.006;2023-04-24T11:37:28;14.80;99.90
5792;DHT22;2922;53.482;10.006;2023-04-24T11:39:56;14.90;99.90
5792;DHT22;2922;53.482;10.006;2023-04-24T11:42:22;14.80;99.90
5792;DHT22;2922;53.482;10.006;2023-04-24T11:44:52;15.00;99.90
5792;DHT22;2922;53.482;10.006;2023-04-24T11:47:18;14.90;99.90
5792;DHT22;2922;53.482;10.006;2023-04-24T11:49:44;15.00;99.90
5792;DHT22;2922;53.482;10.006;2023-04-24T11:52:10;15.10;99.90
5792;DHT22;2922;53.482;10.006;2023-04-24T11:54:36;15.20;99.90
5792;DHT22;2922;53.482;10.006;2023-04-24T11:57:05;15.40;99.90
5792;DHT22;2922;53.482;10.006;2023-04-24T11:59:36;15.40;99.90
5792;DHT22;2922;53.482;10.006;2023-04-24T12:02:02;15.60;99.90
5792;DHT22;2922;53.482;10.006;2023-04-24T12:04:41;15.70;99.90
5792;DHT22;2922;53.482;10.006;2023-04-24T12:07:07;15.80;99.90
5792;DHT22;2922;53.482;10.006;2023-04-24T12:09:47;15.90;99.90
5792;DHT22;2922;53.482;10.006;2023-04-24T12:12:15;15.80;99.90
5792;DHT22;2922;53.482;10.006;2023-04-24T12:14:48;15.80;99.90
5792;DHT22;2922;53.482;10.006;2023-04-24T12:17:14;15.50;99.90
5792;DHT22;2922;53.482;10.006;2023-04-24T12:19:48;15.20;99.90
5792;DHT22;2922;53.482;10.006;2023-04-24T12:22:14;15.20;99.90
5792;DHT22;2922;53.482;10.006;2023-04-24T12:25:03;15.00;99.90
5792;DHT22;2922;53.482;10.006;2023-04-24T12:27:33;14.90;99.90
5792;DHT22;2922;53.482;10.006;2023-04-24T12:30:04;14.80;99.90
5792;DHT22;2922;53.482;10.006;2023-04-24T12:32:29;14.60;99.90
5792;DHT22;2922;53.482;10.006;2023-04-24T12:34:56;14.50;99.90
5792;DHT22;2922;53.482;10.006;2023-04-24T12:37:25;14.30;99.90
5792;DHT22;2922;53.482;10.006;2023-04-24T12:40:03;14.20;99.90
5792;DHT22;2922;53.482;10.006;2023-04-24T12:42:29;14.20;99.90
5792;DHT22;2922;53.482;10.006;2023-04-24T12:45:05;14.10;99.90
5792;DHT22;2922;53.482;10.006;2023-04-24T12:47:32;14.10;99.90
5792;DHT22;2922;53.482;10.006;2023-04-24T12:49:58;14.10;99.90
5792;DHT22;2922;53.482;10.006;2023-04-24T12:52:26;14.00;99.90
5792;DHT22;2922;53.482;10.006;2023-04-24T12:54:56;14.00;99.90
5792;DHT22;2922;53.482;10.006;2023-04-24T12:57:23;13.90;99.90
5792;DHT22;2922;53.482;10.006;2023-04-24T12:59:48;13.80;99.90
5792;DHT22;2922;53.482;10.006;2023-04-24T13:02:14;13.80;99.90
5792;DHT22;2922;53.482;10.006;2023-04-24T13:04:44;13.70;99.90
5792;DHT22;2922;53.482;10.006;2023-04-24T13:07:10;13.70;99.90
5792;DHT22;2922;53.482;10.006;2023-04-24T13:09:35;13.70;99.90
5792;DHT22;2922;53.482;10.006;2023-04-24T13:12:01;13.70;99.90
5792;DHT22;2922;53.482;10.006;2023-04-24T13:14:27;13.60;99.90
5792;DHT22;2922;53.482;10.006;2023-04-24T13:16:53;13.50;99.90
5792;DHT22;2922;53.482;10.006;2023-04-24T13:19:18;13.50;99.90
5792;DHT22;2922;53.482;10.006;2023-04-24T13:21:44;13.40;99.90
5792;DHT22;2922;53.482;10.006;2023-04-24T13:24:10;13.40;99.90
5792;DHT22;2922;53.482;10.006;2023-04-24T13:26:35;13.40;99.90
5792;DHT22;2922;53.482;10.006;2023-04-24T13:29:01;13.40;99.90
5792;DHT22;2922;53.482;10.006;2023-04-24T13:31:26;13.50;99.90
5792;DHT22;2922;53.482;10.006;2023-04-24T13:33:52;13.50;99.90
5792;DHT22;2922;53.482;10.006;2023-04-24T13:36:17;13.50;99.90
5792;DHT22;2922;53.482;10.006;2023-04-24T13:38:44;13.50;99.90
5792;DHT22;2922;53.482;10.006;2023-04-24T13:41:10;13.40;99.90
5792;DHT22;2922;53.482;10.006;2023-04-24T13:43:35;13.40;99.90
5792;DHT22;2922;53.482;10.006;2023-04-24T13:46:01;13.40;99.90
5792;DHT22;2922;53.482;10.006;2023-04-24T13:48:28;13.30;99.90
5792;DHT22;2922;53.482;10.006;2023-04-24T13:50:54;13.30;99.90
5792;DHT22;2922;53.482;10.006;2023-04-24T13:53:20;13.20;99.90
5792;DHT22;2922;53.482;10.006;2023-04-24T13:55:45;13.10;99.90
5792;DHT22;2922;53.482;10.006;2023-04-24T13:58:11;13.10;99.90
5792;DHT22;2922;53.482;10.006;2023-04-24T14:00:36;13.10;99.90
5792;DHT22;2922;53.482;10.006;2023-04-24T14:03:02;13.10;99.90
5792;DHT22;2922;53.482;10.006;2023-04-24T14:05:28;13.10;99.90
5792;DHT22;2922;53.482;10.006;2023-04-24T14:07:53;13.10;99.90
5792;DHT22;2922;53.482;10.006;2023-04-24T14:10:19;13.30;99.90
5792;DHT22;2922;53.482;10.006;2023-04-24T14:12:45;13.50;99.90
5792;DHT22;2922;53.482;10.006;2023-04-24T14:15:10;13.70;99.90
5792;DHT22;2922;53.482;10.006;2023-04-24T14:17:37;13.70;99.90
5792;DHT22;2922;53.482;10.006;2023-04-24T14:20:03;13.70;99.90
5792;DHT22;2922;53.482;10.006;2023-04-24T14:22:29;13.70;99.90
5792;DHT22;2922;53.482;10.006;2023-04-24T14:24:55;13.80;99.90
5792;DHT22;2922;53.482;10.006;2023-04-24T14:27:21;13.80;99.90
5792;DHT22;2922;53.482;10.006;2023-04-24T14:29:46;13.70;99.90
5792;DHT22;2922;53.482;10.006;2023-04-24T14:32:12;13.90;99.90
5792;DHT22;2922;53.482;10.006;2023-04-24T14:34:40;13.80;99.90
5792;DHT22;2922;53.482;10.006;2023-04-24T14:37:05;13.70;99.90
5792;DHT22;2922;53.482;10.006;2023-04-24T14:39:31;13.50;99.90
5792;DHT22;2922;53.482;10.006;2023-04-24T14:41:56;13.40;99.90
5792;DHT22;2922;53.482;10.006;2023-04-24T14:44:22;13.20;99.90
5792;DHT22;2922;53.482;10.006;2023-04-24T14:46:48;13.20;99.90
5792;DHT22;2922;53.482;10.006;2023-04-24T14:49:14;13.00;99.90
5792;DHT22;2922;53.482;10.006;2023-04-24T14:51:40;12.70;99.90
5792;DHT22;2922;53.482;10.006;2023-04-24T14:54:06;12.60;99.90
5792;DHT22;2922;53.482;10.006;2023-04-24T14:56:32;12.30;99.90
5792;DHT22;2922;53.482;10.006;2023-04-24T14:58:58;12.20;99.90
5792;DHT22;2922;53.482;10.006;2023-04-24T15:01:23;12.20;99.90
5792;DHT22;2922;53.482;10.006;2023-04-24T15:03:49;12.10;99.90
5792;DHT22;2922;53.482;10.006;2023-04-24T15:06:15;11.90;99.90
5792;DHT22;2922;53.482;10.006;2023-04-24T15:08:41;11.80;99.90
5792;DHT22;2922;53.482;10.006;2023-04-24T15:11:07;11.70;99.90
5792;DHT22;2922;53.482;10.006;2023-04-24T15:13:33;11.60;99.90
5792;DHT22;2922;53.482;10.006;2023-04-24T15:15:59;11.50;99.90
5792;DHT22;2922;53.482;10.006;2023-04-24T15:18:24;11.20;99.90
5792;DHT22;2922;53.482;10.006;2023-04-24T15:20:50;11.10;99.90
5792;DHT22;2922;53.482;10.006;2023-04-24T15:23:15;11.00;99.90
5792;DHT22;2922;53.482;10.006;2023-04-24T15:25:41;11.00;99.90
5792;DHT22;2922;53.482;10.006;2023-04-24T15:28:06;10.90;99.90
5792;DHT22;2922;53.482;10.006;2023-04-24T15:30:32;10.70;99.90
5792;DHT22;2922;53.482;10.006;2023-04-24T15:32:59;10.60;99.90
5792;DHT22;2922;53.482;10.006;2023-04-24T15:35:25;10.50;99.90
5792;DHT22;2922;53.482;10.006;2023-04-24T15:37:50;10.40;99.90
5792;DHT22;2922;53.482;10.006;2023-04-24T15:40:16;10.20;99.90
5792;DHT22;2922;53.482;10.006;2023-04-24T15:42:42;10.20;99.90
5792;DHT22;2922;53.482;10.006;2023-04-24T15:45:09;10.10;99.90
5792;DHT22;2922;53.482;10.006;2023-04-24T15:47:35;10.10;99.90
5792;DHT22;2922;53.482;10.006;2023-04-24T15:50:01;9.90;99.90
5792;DHT22;2922;53.482;10.006;2023-04-24T15:52:27;9.80;99.90
5792;DHT22;2922;53.482;10.006;2023-04-24T15:54:53;9.70;99.90
5792;DHT22;2922;53.482;10.006;2023-04-24T15:57:18;9.70;99.90
5792;DHT22;2922;53.482;10.006;2023-04-24T15:59:44;9.70;99.90
5792;DHT22;2922;53.482;10.006;2023-04-24T16:02:12;9.60;99.90
5792;DHT22;2922;53.482;10.006;2023-04-24T16:04:49;9.50;99.90
5792;DHT22;2922;53.482;10.006;2023-04-24T16:07:15;9.40;99.90
5792;DHT22;2922;53.482;10.006;2023-04-24T16:09:44;9.30;99.90
5792;DHT22;2922;53.482;10.006;2023-04-24T16:12:10;9.30;99.90